Time;durP1;ratioP1;P1;durP2;ratioP2;P2;SDS_P1;SDS_P2;PMS_P1;PMS_P2;Temp;Humidity;BMP_temperature;BMP_pressure;BME280_temperature;BME280_humidity;BME280_pressure;Samples;Min_cycle;Max_cycle;Signal;HPM_P1;HPM_P2
2021/10/20 00:00:06;;;;;;;9.15;6.88;;;;;;;;;;5148873;27;20109;-74
2021/10/20 00:02:32;;;;;;;7.97;6.95;;;;;;;;;;5149498;27;20396;-74
2021/10/20 00:04:59;;;;;;;12.40;7.10;;;;;;;;;;5149456;27;20023;-73
2021/10/20 00:07:25;;;;;;;8.85;7.45;;;;;;;;;;5149330;27;20041;-74
2021/10/20 00:09:51;;;;;;;7.65;6.95;;;;;;;;;;5149284;27;20079;-74
2021/10/20 00:12:17;;;;;;;8.60;7.47;;;;;;;;;;5148140;27;20027;-74
2021/10/20 00:14:43;;;;;;;7.32;6.60;;;;;;;;;;5149397;27;20082;-74
2021/10/20 00:17:09;;;;;;;9.25;7.03;;;;;;;;;;5149508;27;20023;-74
2021/10/20 00:19:35;;;;;;;7.88;7.05;;;;;;;;;;5149662;27;20022;-73
2021/10/20 00:22:02;;;;;;;10.90;7.20;;;;;;;;;;5149268;27;20071;-73
2021/10/20 00:24:28;;;;;;;10.38;7.90;;;;;;;;;;5148069;27;20101;-74
2021/10/20 00:26:55;;;;;;;10.50;7.57;;;;;;;;;;5148979;27;20027;-74
2021/10/20 00:29:21;;;;;;;11.00;7.82;;;;;;;;;;5149281;27;20105;-74
2021/10/20 00:31:47;;;;;;;8.68;7.55;;;;;;;;;;5149016;27;20610;-74
2021/10/20 00:34:13;;;;;;;12.32;7.88;;;;;;;;;;5147310;27;20078;-74
2021/10/20 00:36:39;;;;;;;9.93;7.80;;;;;;;;;;5149051;27;20022;-74
2021/10/20 00:39:05;;;;;;;11.13;8.32;;;;;;;;;;5147281;27;20034;-74
2021/10/20 00:41:32;;;;;;;12.05;8.32;;;;;;;;;;5148825;27;20022;-73
2021/10/20 00:43:58;;;;;;;9.23;7.70;;;;;;;;;;5149132;27;20015;-73
2021/10/20 00:46:29;;;;;;;12.15;8.68;;;;;;;;;;5148994;27;20034;-74
2021/10/20 00:48:56;;;;;;;12.38;8.15;;;;;;;;;;5149029;27;20018;-74
2021/10/20 00:51:25;;;;;;;13.13;8.85;;;;;;;;;;5148933;27;20363;-74
2021/10/20 00:53:52;;;;;;;11.55;8.40;;;;;;;;;;5145934;27;20425;-74
2021/10/20 00:56:19;;;;;;;8.50;7.63;;;;;;;;;;5147067;27;20022;-74
2021/10/20 00:58:45;;;;;;;10.80;8.23;;;;;;;;;;5127762;27;20142;-74
2021/10/20 01:01:11;;;;;;;10.55;8.75;;;;;;;;;;5128200;27;20015;-74
2021/10/20 01:03:37;;;;;;;11.15;8.55;;;;;;;;;;5128272;27;20119;-73
2021/10/20 01:06:04;;;;;;;9.65;8.23;;;;;;;;;;5126041;27;20015;-73
2021/10/20 01:08:31;;;;;;;10.95;9.07;;;;;;;;;;5127994;27;20023;-73
2021/10/20 01:10:57;;;;;;;11.65;8.95;;;;;;;;;;5139333;27;20525;-74
2021/10/20 01:13:23;;;;;;;12.15;10.25;;;;;;;;;;5148234;27;20522;-73
2021/10/20 01:15:49;;;;;;;10.63;9.40;;;;;;;;;;5146962;27;20058;-73
2021/10/20 01:18:16;;;;;;;14.38;9.52;;;;;;;;;;5148229;27;20039;-74
2021/10/20 01:20:43;;;;;;;12.32;9.23;;;;;;;;;;5148521;27;20021;-73
2021/10/20 01:23:10;;;;;;;11.48;8.57;;;;;;;;;;5148267;27;20097;-74
2021/10/20 01:25:36;;;;;;;9.20;8.20;;;;;;;;;;5147130;27;20029;-73
2021/10/20 01:28:03;;;;;;;10.65;8.35;;;;;;;;;;5148342;27;20023;-74
2021/10/20 01:30:29;;;;;;;10.68;9.13;;;;;;;;;;5148310;27;20026;-73
2021/10/20 01:32:55;;;;;;;20.63;9.48;;;;;;;;;;5148137;27;20348;-74
2021/10/20 01:35:21;;;;;;;12.40;9.88;;;;;;;;;;5146419;27;20638;-73
2021/10/20 01:37:48;;;;;;;10.68;9.52;;;;;;;;;;5148043;27;20053;-74
2021/10/20 01:40:14;;;;;;;12.77;9.90;;;;;;;;;;5148344;27;20040;-74
2021/10/20 01:42:40;;;;;;;13.13;9.77;;;;;;;;;;5148275;27;20056;-73
2021/10/20 01:45:13;;;;;;;11.52;9.50;;;;;;;;;;5145114;27;20019;-73
2021/10/20 01:47:39;;;;;;;13.57;9.85;;;;;;;;;;5148209;27;20030;-73
2021/10/20 01:50:07;;;;;;;12.95;10.23;;;;;;;;;;5148249;27;20026;-74
2021/10/20 01:52:33;;;;;;;12.45;9.88;;;;;;;;;;5148077;27;20023;-73
2021/10/20 01:55:00;;;;;;;14.88;10.07;;;;;;;;;;5146724;27;20344;-74
2021/10/20 01:57:26;;;;;;;14.02;10.07;;;;;;;;;;5147911;27;20031;-74
2021/10/20 01:59:52;;;;;;;18.08;11.25;;;;;;;;;;5146529;27;20038;-74
2021/10/20 02:02:21;;;;;;;14.68;10.70;;;;;;;;;;5147741;27;20026;-74
2021/10/20 02:04:48;;;;;;;13.35;9.85;;;;;;;;;;5147811;27;20101;-73
2021/10/20 02:07:14;;;;;;;11.98;9.90;;;;;;;;;;5140883;27;20027;-74
2021/10/20 02:09:40;;;;;;;12.27;10.60;;;;;;;;;;5141049;27;20029;-74
2021/10/20 02:12:06;;;;;;;11.05;9.50;;;;;;;;;;5141288;27;20389;-74
2021/10/20 02:14:33;;;;;;;11.60;10.25;;;;;;;;;;5142503;27;20027;-74
2021/10/20 02:16:59;;;;;;;12.55;9.80;;;;;;;;;;5139455;27;20034;-74
2021/10/20 02:19:27;;;;;;;17.02;11.07;;;;;;;;;;5142945;27;20038;-73
2021/10/20 02:21:53;;;;;;;12.13;10.60;;;;;;;;;;5142910;27;20042;-73
2021/10/20 02:24:20;;;;;;;13.50;10.90;;;;;;;;;;5146380;27;20023;-74
2021/10/20 02:26:46;;;;;;;12.00;10.63;;;;;;;;;;5146687;27;20027;-74
2021/10/20 02:29:12;;;;;;;12.98;10.02;;;;;;;;;;5146357;27;20386;-74
2021/10/20 02:31:45;;;;;;;11.98;9.95;;;;;;;;;;5144750;27;20113;-73
2021/10/20 02:34:11;;;;;;;11.45;9.63;;;;;;;;;;5146427;27;20382;-74
2021/10/20 02:36:38;;;;;;;12.60;10.25;;;;;;;;;;5145895;27;20095;-73
2021/10/20 02:39:04;;;;;;;11.82;9.98;;;;;;;;;;5146514;27;20041;-74
2021/10/20 02:41:30;;;;;;;13.45;11.10;;;;;;;;;;5144601;27;20665;-74
2021/10/20 02:43:56;;;;;;;14.38;11.45;;;;;;;;;;5145766;27;20747;-74
2021/10/20 02:46:22;;;;;;;15.88;12.05;;;;;;;;;;5146647;27;20602;-74
2021/10/20 02:48:48;;;;;;;14.45;12.10;;;;;;;;;;5145295;27;20026;-74
2021/10/20 02:51:15;;;;;;;17.45;12.15;;;;;;;;;;5146725;27;20046;-73
2021/10/20 02:53:41;;;;;;;18.92;12.27;;;;;;;;;;5145116;27;20042;-74
2021/10/20 02:56:07;;;;;;;13.73;11.88;;;;;;;;;;5132057;27;20092;-74
2021/10/20 02:58:33;;;;;;;13.65;11.05;;;;;;;;;;5145988;27;20055;-73
2021/10/20 03:00:59;;;;;;;12.48;11.18;;;;;;;;;;5146334;27;20111;-74
2021/10/20 03:03:25;;;;;;;14.65;10.55;;;;;;;;;;5140887;27;20030;-73
2021/10/20 03:05:51;;;;;;;13.52;11.52;;;;;;;;;;5143265;27;20031;-74
2021/10/20 03:08:18;;;;;;;13.65;11.02;;;;;;;;;;5143540;27;20033;-74
2021/10/20 03:10:44;;;;;;;11.10;10.00;;;;;;;;;;5137918;27;20023;-74
2021/10/20 03:13:10;;;;;;;13.80;11.73;;;;;;;;;;5121519;27;20042;-74
2021/10/20 03:15:36;;;;;;;15.32;11.52;;;;;;;;;;5121180;27;20027;-73
2021/10/20 03:18:02;;;;;;;14.70;11.43;;;;;;;;;;5122622;27;20045;-73
2021/10/20 03:20:28;;;;;;;15.63;11.93;;;;;;;;;;5132498;27;20095;-74
2021/10/20 03:22:55;;;;;;;14.85;11.77;;;;;;;;;;5143641;27;20038;-74
2021/10/20 03:25:21;;;;;;;12.82;10.35;;;;;;;;;;5143607;27;20027;-74
2021/10/20 03:27:48;;;;;;;16.35;12.30;;;;;;;;;;5141547;27;20113;-74
2021/10/20 03:30:15;;;;;;;13.38;11.82;;;;;;;;;;5143455;27;20023;-74
2021/10/20 03:32:41;;;;;;;14.55;12.07;;;;;;;;;;5143412;27;20030;-74
2021/10/20 03:35:08;;;;;;;12.15;10.65;;;;;;;;;;5141655;27;20019;-73
2021/10/20 03:37:35;;;;;;;13.93;10.65;;;;;;;;;;5143288;27;20122;-73
2021/10/20 03:40:01;;;;;;;15.52;11.10;;;;;;;;;;5142183;27;20747;-73
2021/10/20 03:42:27;;;;;;;11.50;9.32;;;;;;;;;;5139763;27;20033;-74
2021/10/20 03:44:53;;;;;;;14.63;9.52;;;;;;;;;;5143427;27;20014;-74
2021/10/20 03:47:20;;;;;;;12.82;9.05;;;;;;;;;;5142739;27;20071;-73
2021/10/20 03:49:47;;;;;;;13.65;9.80;;;;;;;;;;5143238;27;20034;-74
2021/10/20 03:52:13;;;;;;;11.45;8.93;;;;;;;;;;5141392;27;20042;-74
2021/10/20 03:54:40;;;;;;;12.20;9.35;;;;;;;;;;5142346;27;20027;-74
2021/10/20 03:57:06;;;;;;;10.00;8.55;;;;;;;;;;5142611;27;20019;-74
2021/10/20 03:59:32;;;;;;;9.65;8.40;;;;;;;;;;5143388;27;20054;-74
2021/10/20 04:01:58;;;;;;;10.80;8.48;;;;;;;;;;5142913;27;20034;-74
2021/10/20 04:04:24;;;;;;;9.10;7.85;;;;;;;;;;5140991;27;20035;-74
2021/10/20 04:06:51;;;;;;;10.18;7.57;;;;;;;;;;5129527;27;20039;-74
2021/10/20 04:09:18;;;;;;;8.82;7.35;;;;;;;;;;5133817;27;20071;-74
2021/10/20 04:11:44;;;;;;;8.23;7.40;;;;;;;;;;5142426;27;20493;-74
2021/10/20 04:14:10;;;;;;;8.63;7.22;;;;;;;;;;5142606;27;20031;-74
2021/10/20 04:16:36;;;;;;;10.30;7.20;;;;;;;;;;5139407;27;20101;-73
2021/10/20 04:19:03;;;;;;;10.13;8.32;;;;;;;;;;5142174;27;20040;-74
2021/10/20 04:21:29;;;;;;;9.20;7.90;;;;;;;;;;5142627;27;20549;-74
2021/10/20 04:23:55;;;;;;;11.10;8.93;;;;;;;;;;5134719;27;20489;-73
2021/10/20 04:26:21;;;;;;;11.35;8.32;;;;;;;;;;5121445;27;20630;-73
2021/10/20 04:28:47;;;;;;;11.20;7.97;;;;;;;;;;5120163;27;20470;-74
2021/10/20 04:31:14;;;;;;;8.50;7.65;;;;;;;;;;5121546;27;20489;-74
2021/10/20 04:33:40;;;;;;;9.18;8.25;;;;;;;;;;5121656;27;20043;-74
2021/10/20 04:36:06;;;;;;;10.88;8.38;;;;;;;;;;5121298;27;20024;-74
2021/10/20 04:38:33;;;;;;;35.38;9.27;;;;;;;;;;5133605;27;20363;-70
2021/10/20 04:40:59;;;;;;;10.20;8.73;;;;;;;;;;5141908;27;20019;-70
2021/10/20 04:43:26;;;;;;;11.13;8.25;;;;;;;;;;5144680;27;20021;-71
2021/10/20 04:45:54;;;;;;;10.05;8.75;;;;;;;;;;5137713;27;20023;-74
2021/10/20 04:48:20;;;;;;;29.50;9.55;;;;;;;;;;5123586;27;20027;-72
2021/10/20 04:50:46;;;;;;;14.45;7.97;;;;;;;;;;5122249;27;20030;-72
2021/10/20 04:53:12;;;;;;;9.25;8.27;;;;;;;;;;5122829;27;20015;-72
2021/10/20 04:55:39;;;;;;;9.85;7.80;;;;;;;;;;5132630;27;20207;-73
2021/10/20 04:58:08;;;;;;;13.88;8.73;;;;;;;;;;5143899;27;20477;-72
2021/10/20 05:00:35;;;;;;;10.85;8.27;;;;;;;;;;5144028;27;20034;-72
2021/10/20 05:03:01;;;;;;;8.52;7.63;;;;;;;;;;5142787;27;20034;-72
2021/10/20 05:05:28;;;;;;;11.85;8.20;;;;;;;;;;5142074;27;20645;-72
2021/10/20 05:07:55;;;;;;;9.95;8.00;;;;;;;;;;5143495;27;20458;-71
2021/10/20 05:10:22;;;;;;;10.70;8.02;;;;;;;;;;5143174;27;20067;-73
2021/10/20 05:12:48;;;;;;;10.10;8.32;;;;;;;;;;5143282;27;20026;-72
2021/10/20 05:15:14;;;;;;;11.05;7.93;;;;;;;;;;5143176;27;20019;-72
2021/10/20 05:17:42;;;;;;;9.25;7.35;;;;;;;;;;5141563;27;20065;-72
2021/10/20 05:20:08;;;;;;;10.77;7.53;;;;;;;;;;5133530;27;20110;-72
2021/10/20 05:22:38;;;;;;;8.98;7.57;;;;;;;;;;5122248;27;20035;-73
2021/10/20 05:25:05;;;;;;;8.35;7.55;;;;;;;;;;5136897;27;20038;-72
2021/10/20 05:27:32;;;;;;;8.32;7.38;;;;;;;;;;5140540;27;20157;-74
2021/10/20 05:29:58;;;;;;;11.20;7.82;;;;;;;;;;5142521;27;20026;-72
2021/10/20 05:32:25;;;;;;;10.50;7.18;;;;;;;;;;5142959;27;20015;-73
2021/10/20 05:34:51;;;;;;;11.05;8.35;;;;;;;;;;5142742;27;20026;-74
2021/10/20 05:37:17;;;;;;;10.95;7.45;;;;;;;;;;5141674;27;20031;-75
2021/10/20 05:39:44;;;;;;;10.68;8.02;;;;;;;;;;5141182;27;20623;-74
2021/10/20 05:42:10;;;;;;;8.35;7.00;;;;;;;;;;5143544;27;20019;-74
2021/10/20 05:44:36;;;;;;;7.88;7.18;;;;;;;;;;5143173;27;20163;-74
2021/10/20 05:47:02;;;;;;;12.13;7.38;;;;;;;;;;5141463;27;20096;-74
2021/10/20 05:49:29;;;;;;;8.70;7.20;;;;;;;;;;5138758;27;20536;-74
2021/10/20 05:51:55;;;;;;;14.38;8.88;;;;;;;;;;5140721;27;20035;-73
2021/10/20 05:54:21;;;;;;;10.02;8.85;;;;;;;;;;5142493;27;20031;-74
2021/10/20 05:56:47;;;;;;;23.15;10.30;;;;;;;;;;5141889;27;20169;-74
2021/10/20 05:59:14;;;;;;;15.68;10.68;;;;;;;;;;5145378;27;20526;-72
2021/10/20 06:01:40;;;;;;;12.30;10.43;;;;;;;;;;5145862;27;20023;-72
2021/10/20 06:04:06;;;;;;;9.40;8.25;;;;;;;;;;5142936;27;20034;-72
2021/10/20 06:06:32;;;;;;;11.00;9.02;;;;;;;;;;5137109;27;20034;-73
2021/10/20 06:08:58;;;;;;;10.23;8.13;;;;;;;;;;5141722;27;20062;-73
2021/10/20 06:11:25;;;;;;;10.10;8.77;;;;;;;;;;5138930;27;20031;-73
2021/10/20 06:13:51;;;;;;;10.38;8.55;;;;;;;;;;5143261;27;20019;-73
2021/10/20 06:16:17;;;;;;;11.63;9.93;;;;;;;;;;5145203;27;20069;-74
2021/10/20 06:18:43;;;;;;;14.07;11.27;;;;;;;;;;5144945;27;20031;-72
2021/10/20 06:21:09;;;;;;;12.88;10.80;;;;;;;;;;5142692;27;20033;-73
2021/10/20 06:23:35;;;;;;;12.57;11.10;;;;;;;;;;5145085;27;20702;-73
2021/10/20 06:26:01;;;;;;;12.52;10.45;;;;;;;;;;5142256;27;20049;-73
2021/10/20 06:28:28;;;;;;;14.55;11.88;;;;;;;;;;5144631;27;20030;-73
2021/10/20 06:30:54;;;;;;;14.32;11.20;;;;;;;;;;5143058;27;20022;-73
2021/10/20 06:33:20;;;;;;;14.13;10.90;;;;;;;;;;5143734;27;20529;-73
2021/10/20 06:35:46;;;;;;;22.45;13.23;;;;;;;;;;5145545;27;20035;-73
2021/10/20 06:38:12;;;;;;;16.48;12.52;;;;;;;;;;5123494;27;20558;-73
2021/10/20 06:40:39;;;;;;;15.43;12.27;;;;;;;;;;5125064;27;20417;-73
2021/10/20 06:43:05;;;;;;;13.57;10.52;;;;;;;;;;5144099;27;20364;-72
2021/10/20 06:45:31;;;;;;;13.15;10.93;;;;;;;;;;5145623;27;20374;-73
2021/10/20 06:47:57;;;;;;;13.27;10.05;;;;;;;;;;5144955;27;20041;-73
2021/10/20 06:50:23;;;;;;;13.88;10.98;;;;;;;;;;5146660;27;20046;-73
2021/10/20 06:52:50;;;;;;;12.25;10.23;;;;;;;;;;5139828;27;20068;-73
2021/10/20 06:55:16;;;;;;;10.10;8.52;;;;;;;;;;5142208;27;20498;-73
2021/10/20 06:57:42;;;;;;;13.00;9.18;;;;;;;;;;5145592;27;20035;-73
2021/10/20 07:00:09;;;;;;;12.10;8.88;;;;;;;;;;5143329;27;20043;-73
2021/10/20 07:02:36;;;;;;;9.82;8.82;;;;;;;;;;5133219;27;20031;-73
2021/10/20 07:05:04;;;;;;;10.85;9.07;;;;;;;;;;5136436;27;20079;-73
2021/10/20 07:07:30;;;;;;;16.75;11.27;;;;;;;;;;5133383;27;20057;-73
2021/10/20 07:09:56;;;;;;;17.48;13.35;;;;;;;;;;5140698;27;20075;-73
2021/10/20 07:12:23;;;;;;;28.25;21.48;;;;;;;;;;5124872;27;20030;-73
2021/10/20 07:14:49;;;;;;;30.00;23.20;;;;;;;;;;5131179;27;20133;-73
2021/10/20 07:17:15;;;;;;;29.52;25.17;;;;;;;;;;5145024;27;20075;-74
2021/10/20 07:19:41;;;;;;;28.30;22.77;;;;;;;;;;5145404;27;20038;-73
2021/10/20 07:22:08;;;;;;;23.02;19.52;;;;;;;;;;5143781;27;20048;-73
2021/10/20 07:24:35;;;;;;;17.15;14.32;;;;;;;;;;5145332;27;20019;-73
2021/10/20 07:27:03;;;;;;;11.60;10.48;;;;;;;;;;5145322;27;20029;-74
2021/10/20 07:29:29;;;;;;;15.10;13.32;;;;;;;;;;5143346;27;20038;-74
2021/10/20 07:31:56;;;;;;;15.90;13.50;;;;;;;;;;5143081;27;20019;-74
2021/10/20 07:34:22;;;;;;;14.40;12.55;;;;;;;;;;5143614;27;20542;-74
2021/10/20 07:36:48;;;;;;;16.48;13.30;;;;;;;;;;5144664;27;20396;-74
2021/10/20 07:39:14;;;;;;;12.25;10.70;;;;;;;;;;5144456;27;20035;-73
2021/10/20 07:41:41;;;;;;;11.63;10.40;;;;;;;;;;5143201;27;20027;-74
2021/10/20 07:44:07;;;;;;;19.15;15.48;;;;;;;;;;5144729;27;20034;-75
2021/10/20 07:46:34;;;;;;;17.00;13.90;;;;;;;;;;5143563;27;20023;-73
2021/10/20 07:49:00;;;;;;;15.20;13.63;;;;;;;;;;5144805;27;20538;-73
2021/10/20 07:51:26;;;;;;;15.25;12.32;;;;;;;;;;5144078;27;20027;-74
2021/10/20 07:53:53;;;;;;;15.60;12.57;;;;;;;;;;5142607;27;20038;-75
2021/10/20 07:56:19;;;;;;;11.65;10.45;;;;;;;;;;5144179;27;20015;-74
2021/10/20 07:58:45;;;;;;;10.68;9.68;;;;;;;;;;5144214;27;20106;-75
2021/10/20 08:01:11;;;;;;;10.63;9.15;;;;;;;;;;5144217;27;20023;-74
2021/10/20 08:03:38;;;;;;;12.27;9.95;;;;;;;;;;5143844;27;20110;-75
2021/10/20 08:06:04;;;;;;;9.00;8.10;;;;;;;;;;5142632;27;20486;-75
2021/10/20 08:08:30;;;;;;;7.43;6.72;;;;;;;;;;5144394;27;20041;-74
2021/10/20 08:10:56;;;;;;;12.98;8.43;;;;;;;;;;5144430;27;20027;-75
2021/10/20 08:13:22;;;;;;;8.70;7.68;;;;;;;;;;5143736;27;20098;-76
2021/10/20 08:15:49;;;;;;;8.68;7.88;;;;;;;;;;5144169;27;20025;-76
2021/10/20 08:18:16;;;;;;;11.70;9.13;;;;;;;;;;5124634;27;20039;-74
2021/10/20 08:20:42;;;;;;;9.73;8.68;;;;;;;;;;5135654;27;20163;-74
2021/10/20 08:23:08;;;;;;;7.82;7.00;;;;;;;;;;5142596;27;20038;-75
2021/10/20 08:25:36;;;;;;;8.07;7.28;;;;;;;;;;5144152;27;20794;-75
2021/10/20 08:28:02;;;;;;;7.63;6.88;;;;;;;;;;5140715;27;20494;-75
2021/10/20 08:30:29;;;;;;;7.22;6.53;;;;;;;;;;5139189;27;20022;-75
2021/10/20 08:32:56;;;;;;;9.38;7.03;;;;;;;;;;5143383;27;20030;-75
2021/10/20 08:35:22;;;;;;;7.25;6.55;;;;;;;;;;5142690;27;20030;-75
2021/10/20 08:37:56;;;;;;;7.50;6.80;;;;;;;;;;5123476;27;20035;-74
2021/10/20 08:40:26;;;;;;;7.25;6.50;;;;;;;;;;5123028;27;20050;-75
2021/10/20 08:42:54;;;;;;;7.97;6.68;;;;;;;;;;5141360;27;20030;-75
2021/10/20 08:45:20;;;;;;;9.57;7.03;;;;;;;;;;5142385;27;20026;-75
2021/10/20 08:47:47;;;;;;;7.20;6.50;;;;;;;;;;5143417;27;20083;-75
2021/10/20 08:50:16;;;;;;;7.97;6.78;;;;;;;;;;5143193;27;20034;-75
2021/10/20 08:52:42;;;;;;;7.50;5.97;;;;;;;;;;5143492;27;20561;-75
2021/10/20 08:55:09;;;;;;;11.52;7.93;;;;;;;;;;5140621;27;20017;-73
2021/10/20 08:57:35;;;;;;;6.38;5.78;;;;;;;;;;5142490;27;20019;-74
2021/10/20 09:00:05;;;;;;;7.53;6.82;;;;;;;;;;5142947;27;20642;-75
2021/10/20 09:02:36;;;;;;;10.23;7.90;;;;;;;;;;5142801;27;20360;-76
2021/10/20 09:05:03;;;;;;;7.75;6.78;;;;;;;;;;5141049;27;20026;-75
2021/10/20 09:07:29;;;;;;;7.75;7.05;;;;;;;;;;5137528;27;20102;-75
2021/10/20 09:09:55;;;;;;;7.63;6.72;;;;;;;;;;5127755;27;20530;-75
2021/10/20 09:12:30;;;;;;;7.97;7.05;;;;;;;;;;5141493;27;20035;-74
2021/10/20 09:14:58;;;;;;;8.18;7.38;;;;;;;;;;5142496;27;20055;-74
2021/10/20 09:17:25;;;;;;;8.80;7.70;;;;;;;;;;5142930;27;20021;-74
2021/10/20 09:19:53;;;;;;;8.45;7.22;;;;;;;;;;5143252;27;20048;-73
2021/10/20 09:22:19;;;;;;;10.02;7.88;;;;;;;;;;5144683;27;20018;-75
2021/10/20 09:24:45;;;;;;;7.53;6.72;;;;;;;;;;5142752;27;20030;-74
2021/10/20 09:27:19;;;;;;;9.73;7.00;;;;;;;;;;5141104;27;20019;-72
2021/10/20 09:29:45;;;;;;;8.73;7.18;;;;;;;;;;5142736;27;20031;-73
2021/10/20 09:32:12;;;;;;;9.93;6.70;;;;;;;;;;5142249;27;20371;-73
2021/10/20 09:34:38;;;;;;;7.82;7.13;;;;;;;;;;5142423;27;20458;-74
2021/10/20 09:37:05;;;;;;;8.05;7.05;;;;;;;;;;5142935;27;20026;-73
2021/10/20 09:39:32;;;;;;;8.40;7.50;;;;;;;;;;5141115;27;20035;-70
2021/10/20 09:42:11;;;;;;;8.13;7.32;;;;;;;;;;5143517;27;20026;-73
2021/10/20 09:44:50;;;;;;;8.70;7.43;;;;;;;;;;5142846;27;20078;-72
2021/10/20 09:47:16;;;;;;;9.10;8.20;;;;;;;;;;5142474;27;20018;-71
2021/10/20 09:49:56;;;;;;;8.13;7.40;;;;;;;;;;5142322;27;20038;-72
2021/10/20 09:52:23;;;;;;;7.53;6.82;;;;;;;;;;5142325;27;20052;-73
2021/10/20 09:54:50;;;;;;;11.52;7.30;;;;;;;;;;5141234;27;20041;-75
2021/10/20 09:57:16;;;;;;;8.20;7.25;;;;;;;;;;5142768;27;20394;-72
2021/10/20 09:59:43;;;;;;;8.30;6.38;;;;;;;;;;5142849;27;20051;-73
2021/10/20 10:02:10;;;;;;;7.78;6.85;;;;;;;;;;5140829;27;20027;-72
2021/10/20 10:04:38;;;;;;;8.05;7.15;;;;;;;;;;5142416;27;20103;-71
2021/10/20 10:07:04;;;;;;;7.53;6.68;;;;;;;;;;5142357;27;20026;-72
2021/10/20 10:09:31;;;;;;;10.10;7.45;;;;;;;;;;5142671;27;20114;-74
2021/10/20 10:11:59;;;;;;;10.75;6.97;;;;;;;;;;5142000;27;20072;-72
2021/10/20 10:14:27;;;;;;;9.75;7.15;;;;;;;;;;5142314;27;20018;-74
2021/10/20 10:16:59;;;;;;;7.75;6.80;;;;;;;;;;5141420;27;20027;-72
2021/10/20 10:19:26;;;;;;;7.70;6.97;;;;;;;;;;5141376;27;20278;-73
2021/10/20 10:21:52;;;;;;;7.30;6.60;;;;;;;;;;5141622;27;20483;-72
2021/10/20 10:24:19;;;;;;;8.05;6.63;;;;;;;;;;5140534;27;20044;-75
2021/10/20 10:27:00;;;;;;;7.28;6.68;;;;;;;;;;5142341;27;20110;-72
2021/10/20 10:29:26;;;;;;;7.72;6.85;;;;;;;;;;5141840;27;20023;-71
2021/10/20 10:31:53;;;;;;;7.68;6.57;;;;;;;;;;5142297;27;20019;-72
2021/10/20 10:34:20;;;;;;;7.80;7.10;;;;;;;;;;5142225;27;20053;-72
2021/10/20 10:36:58;;;;;;;7.70;7.00;;;;;;;;;;5142941;27;20022;-72
2021/10/20 10:39:25;;;;;;;8.38;6.72;;;;;;;;;;5140426;27;20031;-72
2021/10/20 10:41:56;;;;;;;8.48;6.60;;;;;;;;;;5141852;27;20030;-72
2021/10/20 10:44:24;;;;;;;7.80;7.03;;;;;;;;;;5142771;27;20037;-72
2021/10/20 10:47:05;;;;;;;7.38;6.68;;;;;;;;;;5145984;27;20048;-72
2021/10/20 10:49:44;;;;;;;7.28;6.60;;;;;;;;;;5145695;27;20581;-72
2021/10/20 10:52:19;;;;;;;7.68;6.88;;;;;;;;;;5143425;27;20502;-71
2021/10/20 10:55:04;;;;;;;10.18;7.68;;;;;;;;;;5144673;27;20106;-73
2021/10/20 10:57:37;;;;;;;8.18;6.95;;;;;;;;;;5144114;27;20026;-71
2021/10/20 11:00:06;;;;;;;8.15;7.28;;;;;;;;;;5143564;27;20110;-72
2021/10/20 11:02:44;;;;;;;7.50;6.80;;;;;;;;;;5145101;27;20041;-72
2021/10/20 11:05:10;;;;;;;8.15;7.35;;;;;;;;;;5145804;27;20180;-72
2021/10/20 11:07:36;;;;;;;9.63;7.25;;;;;;;;;;5144749;27;20087;-74
2021/10/20 11:10:03;;;;;;;7.65;6.95;;;;;;;;;;5143611;27;20083;-72
2021/10/20 11:12:30;;;;;;;7.20;6.50;;;;;;;;;;5137953;27;20038;-71
2021/10/20 11:14:57;;;;;;;7.10;6.43;;;;;;;;;;5145393;27;20030;-72
2021/10/20 11:17:23;;;;;;;9.25;7.35;;;;;;;;;;5143608;27;20433;-72
2021/10/20 11:19:50;;;;;;;7.93;7.13;;;;;;;;;;5145472;27;20360;-72
2021/10/20 11:22:20;;;;;;;6.97;6.38;;;;;;;;;;5142306;27;20053;-72
2021/10/20 11:24:47;;;;;;;9.15;7.88;;;;;;;;;;5144834;27;20035;-71
2021/10/20 11:27:15;;;;;;;8.45;7.63;;;;;;;;;;5145357;27;20109;-71
2021/10/20 11:29:45;;;;;;;8.00;7.22;;;;;;;;;;5141364;27;20075;-72
2021/10/20 11:32:12;;;;;;;10.82;8.70;;;;;;;;;;5130920;27;20023;-71
2021/10/20 11:34:39;;;;;;;9.73;8.13;;;;;;;;;;5124218;27;20020;-71
2021/10/20 11:37:06;;;;;;;8.60;7.80;;;;;;;;;;5131021;27;20053;-72
2021/10/20 11:39:33;;;;;;;8.75;7.88;;;;;;;;;;5145371;27;20042;-71
2021/10/20 11:42:00;;;;;;;9.30;8.00;;;;;;;;;;5143254;27;20034;-74
2021/10/20 11:44:27;;;;;;;8.75;7.95;;;;;;;;;;5145813;27;20015;-71
2021/10/20 11:47:00;;;;;;;9.68;8.40;;;;;;;;;;5144052;27;20047;-70
2021/10/20 11:49:26;;;;;;;9.95;8.27;;;;;;;;;;5144605;27;20098;-71
2021/10/20 11:51:53;;;;;;;10.80;8.50;;;;;;;;;;5144444;27;20087;-71
2021/10/20 11:54:24;;;;;;;9.82;8.82;;;;;;;;;;5142893;27;20014;-71
2021/10/20 11:56:55;;;;;;;10.20;8.85;;;;;;;;;;5142942;27;20041;-71
2021/10/20 11:59:22;;;;;;;10.95;9.85;;;;;;;;;;5143344;27;20121;-71
2021/10/20 12:01:49;;;;;;;9.15;8.25;;;;;;;;;;5137626;27;20074;-71
2021/10/20 12:04:16;;;;;;;10.32;9.15;;;;;;;;;;5123662;27;20031;-71
2021/10/20 12:06:42;;;;;;;10.88;9.88;;;;;;;;;;5122295;27;20041;-72
2021/10/20 12:09:11;;;;;;;9.57;8.57;;;;;;;;;;5143823;27;20023;-70
2021/10/20 12:11:38;;;;;;;11.57;10.38;;;;;;;;;;5144314;27;20558;-70
2021/10/20 12:14:07;;;;;;;10.52;9.52;;;;;;;;;;5144065;27;20383;-71
2021/10/20 12:16:34;;;;;;;10.13;9.15;;;;;;;;;;5142477;27;20057;-71
2021/10/20 12:19:02;;;;;;;10.45;9.40;;;;;;;;;;5143855;27;20114;-71
2021/10/20 12:21:29;;;;;;;10.77;9.68;;;;;;;;;;5142535;27;20103;-71
2021/10/20 12:24:00;;;;;;;10.00;9.00;;;;;;;;;;5143914;27;20019;-72
2021/10/20 12:26:33;;;;;;;12.00;9.27;;;;;;;;;;5144146;27;20031;-71
2021/10/20 12:29:04;;;;;;;12.73;9.18;;;;;;;;;;5142387;27;20037;-71
2021/10/20 12:31:30;;;;;;;11.48;9.52;;;;;;;;;;5143334;27;20150;-71
2021/10/20 12:33:57;;;;;;;9.68;8.77;;;;;;;;;;5143883;27;20049;-71
2021/10/20 12:36:24;;;;;;;10.60;9.60;;;;;;;;;;5143724;27;20428;-71
2021/10/20 12:38:50;;;;;;;10.23;9.15;;;;;;;;;;5143575;27;20077;-71
2021/10/20 12:41:21;;;;;;;11.00;9.90;;;;;;;;;;5141482;27;20518;-70
2021/10/20 12:43:48;;;;;;;10.57;9.57;;;;;;;;;;5143476;27;20054;-72
2021/10/20 12:46:15;;;;;;;9.85;8.88;;;;;;;;;;5143753;27;20630;-73
2021/10/20 12:48:43;;;;;;;11.27;10.00;;;;;;;;;;5136532;27;20542;-72
2021/10/20 12:51:10;;;;;;;10.32;9.10;;;;;;;;;;5144233;27;20034;-71
2021/10/20 12:53:46;;;;;;;12.02;9.88;;;;;;;;;;5143114;27;20054;-71
2021/10/20 12:56:13;;;;;;;12.05;9.98;;;;;;;;;;5142148;27;20548;-70
2021/10/20 12:58:39;;;;;;;10.93;9.93;;;;;;;;;;5142474;27;20379;-72
2021/10/20 13:01:07;;;;;;;11.07;10.02;;;;;;;;;;5143569;27;20057;-71
2021/10/20 13:03:33;;;;;;;11.25;10.10;;;;;;;;;;5136341;27;20645;-71
2021/10/20 13:06:00;;;;;;;12.95;9.93;;;;;;;;;;5123043;27;20023;-71
2021/10/20 13:08:26;;;;;;;12.02;10.80;;;;;;;;;;5141457;27;20029;-71
2021/10/20 13:10:54;;;;;;;11.32;10.32;;;;;;;;;;5143564;27;20530;-71
2021/10/20 13:13:21;;;;;;;11.35;10.25;;;;;;;;;;5142476;27;20777;-71
2021/10/20 13:15:47;;;;;;;12.05;10.05;;;;;;;;;;5142754;27;20105;-70
2021/10/20 13:18:13;;;;;;;11.25;9.98;;;;;;;;;;5143131;27;20041;-71
2021/10/20 13:20:40;;;;;;;11.65;10.57;;;;;;;;;;5143603;27;20021;-72
2021/10/20 13:23:07;;;;;;;11.95;10.75;;;;;;;;;;5139460;27;20027;-71
2021/10/20 13:25:34;;;;;;;12.07;10.80;;;;;;;;;;5143529;27;20062;-70
2021/10/20 13:28:02;;;;;;;12.50;10.27;;;;;;;;;;5140838;27;20034;-72
2021/10/20 13:30:28;;;;;;;11.85;10.75;;;;;;;;;;5143194;27;20034;-71
2021/10/20 13:32:54;;;;;;;11.70;10.60;;;;;;;;;;5142967;27;20041;-71
2021/10/20 13:35:21;;;;;;;11.40;10.25;;;;;;;;;;5142384;27;20025;-71
2021/10/20 13:37:47;;;;;;;9.82;8.82;;;;;;;;;;5142780;27;20026;-71
2021/10/20 13:40:13;;;;;;;10.88;9.00;;;;;;;;;;5141547;27;20554;-72
2021/10/20 13:42:39;;;;;;;15.15;9.93;;;;;;;;;;5140813;27;20022;-71
2021/10/20 13:45:07;;;;;;;10.43;9.43;;;;;;;;;;5142540;27;20198;-73
2021/10/20 13:47:34;;;;;;;11.68;10.57;;;;;;;;;;5142301;27;20054;-71
2021/10/20 13:50:00;;;;;;;10.15;9.13;;;;;;;;;;5142151;27;20022;-71
2021/10/20 13:52:26;;;;;;;10.90;9.80;;;;;;;;;;5142642;27;20018;-71
2021/10/20 13:54:53;;;;;;;9.95;9.05;;;;;;;;;;5141085;27;20029;-71
2021/10/20 13:57:19;;;;;;;9.27;8.40;;;;;;;;;;5142186;27;20034;-71
2021/10/20 13:59:45;;;;;;;9.60;8.70;;;;;;;;;;5142373;27;20122;-71
2021/10/20 14:02:12;;;;;;;10.40;9.30;;;;;;;;;;5142456;27;20023;-71
2021/10/20 14:04:38;;;;;;;10.48;8.88;;;;;;;;;;5142469;27;20014;-71
2021/10/20 14:07:08;;;;;;;13.57;10.07;;;;;;;;;;5140702;27;20022;-72
2021/10/20 14:09:36;;;;;;;10.30;8.98;;;;;;;;;;5142453;27;20218;-72
2021/10/20 14:12:04;;;;;;;10.05;9.05;;;;;;;;;;5142741;27;20027;-71
2021/10/20 14:14:30;;;;;;;9.73;8.77;;;;;;;;;;5142462;27;20015;-71
2021/10/20 14:16:56;;;;;;;9.65;8.70;;;;;;;;;;5142187;27;20018;-71
2021/10/20 14:19:22;;;;;;;9.23;8.32;;;;;;;;;;5143821;27;20090;-71
2021/10/20 14:21:49;;;;;;;10.13;9.10;;;;;;;;;;5146333;27;20025;-71
2021/10/20 14:24:15;;;;;;;9.38;8.23;;;;;;;;;;5145405;27;20033;-71
2021/10/20 14:26:41;;;;;;;13.30;8.35;;;;;;;;;;5146194;27;20031;-71
2021/10/20 14:29:07;;;;;;;8.82;7.35;;;;;;;;;;5146309;27;20431;-71